Moretown, Vermont
Current Conditions -  °F | °C
As of 6:34 AM on Friday 31 Oct 2014 (Local Time) from KMPV Reporting Station
Broken Clouds Broken Clouds  
Wind Chill: 34°   Ceiling: 4700
Heat Index: 34°   Visibility: 10mi
Dew Point: 31°   Wind: 3mph
Humidity: 89%   Direction: 170°S
Pressure: 30.05"   Gusts: NA
Location:  44.25°N, 72.76°W
Report Text: KMPV 311034Z AUTO 17003KT 10SM SCT025 BKN047 01/M01 A3005 RMK AO2 T00111006
Loading
Personal Weather Stations






























Interactive Weather Map
Tropical Storm Tracking
New forecast layout! Learn more

10-Day Weather Forecast

Advertisements
Track Severe Weather on mobile